sensor_id;sensor_type;location;lat;lon;timestamp;P1;durP1;ratioP1;P2;durP2;ratioP2
34521;SDS011;25561;48.888;8.736;2023-03-14T06:49:40;2.30;;;0.70;;
34521;SDS011;25561;48.888;8.736;2023-03-14T06:52:42;3.72;;;0.60;;
34521;SDS011;25561;48.888;8.736;2023-03-14T06:55:49;4.65;;;0.80;;
34521;SDS011;25561;48.888;8.736;2023-03-14T06:58:51;3.25;;;1.02;;
34521;SDS011;25561;48.888;8.736;2023-03-14T07:01:53;1.45;;;0.60;;
34521;SDS011;25561;48.888;8.736;2023-03-14T07:04:55;2.00;;;0.80;;
34521;SDS011;25561;48.888;8.736;2023-03-14T07:07:58;1.17;;;0.63;;
34521;SDS011;25561;48.888;8.736;2023-03-14T07:11:03;1.90;;;0.80;;
34521;SDS011;25561;48.888;8.736;2023-03-14T07:14:06;1.70;;;0.40;;
34521;SDS011;25561;48.888;8.736;2023-03-14T07:17:09;1.40;;;0.57;;
34521;SDS011;25561;48.888;8.736;2023-03-14T07:20:13;4.07;;;0.60;;
34521;SDS011;25561;48.888;8.736;2023-03-14T07:23:22;2.47;;;0.65;;
34521;SDS011;25561;48.888;8.736;2023-03-14T07:26:29;2.38;;;0.43;;
34521;SDS011;25561;48.888;8.736;2023-03-14T07:29:36;1.75;;;0.40;;
34521;SDS011;25561;48.888;8.736;2023-03-14T07:32:40;1.00;;;0.40;;
34521;SDS011;25561;48.888;8.736;2023-03-14T07:35:46;4.50;;;0.50;;
34521;SDS011;25561;48.888;8.736;2023-03-14T07:38:52;0.82;;;0.47;;
34521;SDS011;25561;48.888;8.736;2023-03-14T07:41:56;1.67;;;0.60;;
34521;SDS011;25561;48.888;8.736;2023-03-14T07:45:00;1.97;;;0.30;;
34521;SDS011;25561;48.888;8.736;2023-03-14T07:48:05;2.90;;;0.50;;
34521;SDS011;25561;48.888;8.736;2023-03-14T07:51:08;0.47;;;0.40;;
34521;SDS011;25561;48.888;8.736;2023-03-14T07:54:10;2.20;;;0.40;;
34521;SDS011;25561;48.888;8.736;2023-03-14T07:57:12;2.80;;;0.30;;
34521;SDS011;25561;48.888;8.736;2023-03-14T08:00:14;2.05;;;0.55;;
34521;SDS011;25561;48.888;8.736;2023-03-14T08:03:17;1.73;;;0.40;;
34521;SDS011;25561;48.888;8.736;2023-03-14T08:06:21;0.43;;;0.40;;
34521;SDS011;25561;48.888;8.736;2023-03-14T08:09:23;2.33;;;0.43;;
34521;SDS011;25561;48.888;8.736;2023-03-14T08:12:25;1.52;;;0.50;;
34521;SDS011;25561;48.888;8.736;2023-03-14T08:15:28;1.15;;;0.35;;
34521;SDS011;25561;48.888;8.736;2023-03-14T08:18:31;3.13;;;0.47;;
34521;SDS011;25561;48.888;8.736;2023-03-14T08:21:34;1.85;;;0.38;;
34521;SDS011;25561;48.888;8.736;2023-03-14T08:24:36;3.05;;;0.40;;
34521;SDS011;25561;48.888;8.736;2023-03-14T08:27:38;0.90;;;0.30;;
34521;SDS011;25561;48.888;8.736;2023-03-14T08:30:42;1.95;;;0.43;;
34521;SDS011;25561;48.888;8.736;2023-03-14T08:33:48;4.10;;;2.05;;
34521;SDS011;25561;48.888;8.736;2023-03-14T08:36:50;2.72;;;1.60;;
34521;SDS011;25561;48.888;8.736;2023-03-14T08:39:52;3.28;;;2.03;;
34521;SDS011;25561;48.888;8.736;2023-03-14T08:42:56;1.15;;;0.82;;
34521;SDS011;25561;48.888;8.736;2023-03-14T08:46:00;3.63;;;1.00;;
34521;SDS011;25561;48.888;8.736;2023-03-14T08:49:06;6.03;;;1.13;;
34521;SDS011;25561;48.888;8.736;2023-03-14T08:52:08;2.30;;;0.80;;
34521;SDS011;25561;48.888;8.736;2023-03-14T08:55:13;0.80;;;0.30;;
34521;SDS011;25561;48.888;8.736;2023-03-14T08:58:15;0.38;;;0.38;;
34521;SDS011;25561;48.888;8.736;2023-03-14T09:01:20;2.03;;;0.40;;
34521;SDS011;25561;48.888;8.736;2023-03-14T09:04:27;1.00;;;0.40;;
34521;SDS011;25561;48.888;8.736;2023-03-14T09:07:31;0.28;;;0.22;;
34521;SDS011;25561;48.888;8.736;2023-03-14T09:10:43;2.15;;;0.47;;
34521;SDS011;25561;48.888;8.736;2023-03-14T09:13:47;3.43;;;0.50;;
34521;SDS011;25561;48.888;8.736;2023-03-14T09:16:52;0.70;;;0.50;;
34521;SDS011;25561;48.888;8.736;2023-03-14T09:19:55;0.75;;;0.30;;
34521;SDS011;25561;48.888;8.736;2023-03-14T09:23:17;0.95;;;0.50;;
34521;SDS011;25561;48.888;8.736;2023-03-14T09:26:24;3.63;;;0.40;;
34521;SDS011;25561;48.888;8.736;2023-03-14T09:29:39;0.68;;;0.35;;
34521;SDS011;25561;48.888;8.736;2023-03-14T09:32:46;1.95;;;0.50;;
34521;SDS011;25561;48.888;8.736;2023-03-14T09:35:53;1.10;;;0.30;;
34521;SDS011;25561;48.888;8.736;2023-03-14T09:39:10;0.30;;;0.30;;
34521;SDS011;25561;48.888;8.736;2023-03-14T09:42:23;1.02;;;0.73;;
34521;SDS011;25561;48.888;8.736;2023-03-14T09:45:31;0.30;;;0.30;;
34521;SDS011;25561;48.888;8.736;2023-03-14T09:48:38;1.27;;;0.30;;
34521;SDS011;25561;48.888;8.736;2023-03-14T09:51:41;0.32;;;0.30;;
34521;SDS011;25561;48.888;8.736;2023-03-14T09:54:50;0.90;;;0.30;;
34521;SDS011;25561;48.888;8.736;2023-03-14T09:58:09;2.80;;;0.40;;
34521;SDS011;25561;48.888;8.736;2023-03-14T10:01:18;0.45;;;0.40;;
34521;SDS011;25561;48.888;8.736;2023-03-14T10:04:33;2.17;;;0.45;;
34521;SDS011;25561;48.888;8.736;2023-03-14T10:07:35;1.52;;;0.30;;
34521;SDS011;25561;48.888;8.736;2023-03-14T10:10:38;0.50;;;0.30;;
34521;SDS011;25561;48.888;8.736;2023-03-14T10:14:02;0.50;;;0.30;;
34521;SDS011;25561;48.888;8.736;2023-03-14T10:17:08;0.40;;;0.40;;
34521;SDS011;25561;48.888;8.736;2023-03-14T10:20:30;2.33;;;1.27;;
34521;SDS011;25561;48.888;8.736;2023-03-14T10:23:38;2.42;;;1.17;;
34521;SDS011;25561;48.888;8.736;2023-03-14T10:26:54;3.65;;;1.80;;
34521;SDS011;25561;48.888;8.736;2023-03-14T10:33:09;0.40;;;0.35;;
34521;SDS011;25561;48.888;8.736;2023-03-14T10:36:20;0.80;;;0.32;;
34521;SDS011;25561;48.888;8.736;2023-03-14T10:42:43;1.27;;;0.40;;
34521;SDS011;25561;48.888;8.736;2023-03-14T10:49:26;0.88;;;0.30;;
34521;SDS011;25561;48.888;8.736;2023-03-14T10:52:34;0.47;;;0.30;;
34521;SDS011;25561;48.888;8.736;2023-03-14T10:55:57;1.35;;;0.40;;
34521;SDS011;25561;48.888;8.736;2023-03-14T10:59:07;0.30;;;0.30;;
34521;SDS011;25561;48.888;8.736;2023-03-14T11:02:21;0.77;;;0.30;;
34521;SDS011;25561;48.888;8.736;2023-03-14T11:09:24;0.85;;;0.50;;
34521;SDS011;25561;48.888;8.736;2023-03-14T11:25:52;0.38;;;0.20;;
34521;SDS011;25561;48.888;8.736;2023-03-14T11:29:20;1.85;;;0.20;;
34521;SDS011;25561;48.888;8.736;2023-03-14T11:32:35;1.10;;;0.45;;
34521;SDS011;25561;48.888;8.736;2023-03-14T11:35:50;0.15;;;0.15;;
34521;SDS011;25561;48.888;8.736;2023-03-14T11:38:59;1.30;;;0.80;;
34521;SDS011;25561;48.888;8.736;2023-03-14T11:42:01;0.57;;;0.20;;
34521;SDS011;25561;48.888;8.736;2023-03-14T11:45:13;0.57;;;0.50;;
34521;SDS011;25561;48.888;8.736;2023-03-14T11:51:43;1.08;;;0.98;;
34521;SDS011;25561;48.888;8.736;2023-03-14T11:58:21;0.70;;;0.40;;
34521;SDS011;25561;48.888;8.736;2023-03-14T12:01:33;1.17;;;0.60;;
34521;SDS011;25561;48.888;8.736;2023-03-14T12:05:14;4.10;;;0.80;;
34521;SDS011;25561;48.888;8.736;2023-03-14T12:08:38;2.03;;;1.17;;
34521;SDS011;25561;48.888;8.736;2023-03-14T12:14:59;2.72;;;1.08;;
34521;SDS011;25561;48.888;8.736;2023-03-14T12:18:03;4.10;;;1.70;;
34521;SDS011;25561;48.888;8.736;2023-03-14T12:21:08;2.70;;;1.17;;
34521;SDS011;25561;48.888;8.736;2023-03-14T12:24:20;3.97;;;1.42;;
34521;SDS011;25561;48.888;8.736;2023-03-14T12:31:12;2.75;;;1.30;;
34521;SDS011;25561;48.888;8.736;2023-03-14T12:34:32;3.40;;;1.55;;
34521;SDS011;25561;48.888;8.736;2023-03-14T12:37:41;7.18;;;1.30;;
34521;SDS011;25561;48.888;8.736;2023-03-14T12:50:37;1.70;;;0.73;;
34521;SDS011;25561;48.888;8.736;2023-03-14T12:57:53;5.03;;;1.30;;
34521;SDS011;25561;48.888;8.736;2023-03-14T13:01:14;2.38;;;0.80;;
34521;SDS011;25561;48.888;8.736;2023-03-14T13:04:44;4.88;;;1.05;;
34521;SDS011;25561;48.888;8.736;2023-03-14T13:10:59;6.05;;;1.23;;
34521;SDS011;25561;48.888;8.736;2023-03-14T13:14:08;7.63;;;0.80;;
34521;SDS011;25561;48.888;8.736;2023-03-14T13:17:20;1.05;;;0.50;;
34521;SDS011;25561;48.888;8.736;2023-03-14T13:20:46;3.25;;;0.80;;
34521;SDS011;25561;48.888;8.736;2023-03-14T13:24:04;1.30;;;0.50;;
34521;SDS011;25561;48.888;8.736;2023-03-14T13:27:22;1.65;;;0.55;;
34521;SDS011;25561;48.888;8.736;2023-03-14T13:34:02;5.32;;;1.60;;
34521;SDS011;25561;48.888;8.736;2023-03-14T13:37:16;5.13;;;0.63;;
34521;SDS011;25561;48.888;8.736;2023-03-14T13:40:24;1.20;;;0.50;;
34521;SDS011;25561;48.888;8.736;2023-03-14T13:43:34;0.73;;;0.63;;
34521;SDS011;25561;48.888;8.736;2023-03-14T13:46:42;4.75;;;0.60;;
34521;SDS011;25561;48.888;8.736;2023-03-14T13:49:44;2.17;;;0.60;;
34521;SDS011;25561;48.888;8.736;2023-03-14T13:52:47;2.67;;;0.70;;
34521;SDS011;25561;48.888;8.736;2023-03-14T13:56:00;2.42;;;0.40;;
34521;SDS011;25561;48.888;8.736;2023-03-14T13:59:04;3.13;;;0.70;;
34521;SDS011;25561;48.888;8.736;2023-03-14T14:02:12;4.93;;;0.93;;
34521;SDS011;25561;48.888;8.736;2023-03-14T14:05:18;1.92;;;0.55;;
34521;SDS011;25561;48.888;8.736;2023-03-14T14:08:21;1.95;;;0.60;;
34521;SDS011;25561;48.888;8.736;2023-03-14T14:15:11;5.03;;;0.93;;
34521;SDS011;25561;48.888;8.736;2023-03-14T14:18:20;5.07;;;0.80;;
34521;SDS011;25561;48.888;8.736;2023-03-14T14:21:26;4.70;;;1.05;;
34521;SDS011;25561;48.888;8.736;2023-03-14T14:24:29;3.17;;;0.95;;
34521;SDS011;25561;48.888;8.736;2023-03-14T14:27:36;4.88;;;1.02;;
34521;SDS011;25561;48.888;8.736;2023-03-14T14:30:40;9.68;;;1.10;;
34521;SDS011;25561;48.888;8.736;2023-03-14T14:33:43;5.97;;;1.23;;
34521;SDS011;25561;48.888;8.736;2023-03-14T14:36:46;6.60;;;0.98;;
34521;SDS011;25561;48.888;8.736;2023-03-14T14:39:51;5.97;;;1.25;;
34521;SDS011;25561;48.888;8.736;2023-03-14T14:43:01;3.17;;;0.80;;
34521;SDS011;25561;48.888;8.736;2023-03-14T14:46:05;12.85;;;2.00;;
34521;SDS011;25561;48.888;8.736;2023-03-14T14:49:10;7.03;;;1.20;;
34521;SDS011;25561;48.888;8.736;2023-03-14T14:52:30;9.45;;;1.17;;
34521;SDS011;25561;48.888;8.736;2023-03-14T14:55:41;8.80;;;1.30;;
34521;SDS011;25561;48.888;8.736;2023-03-14T14:58:44;5.22;;;1.02;;
34521;SDS011;25561;48.888;8.736;2023-03-14T15:01:47;9.03;;;1.30;;
34521;SDS011;25561;48.888;8.736;2023-03-14T15:04:51;3.60;;;1.13;;
34521;SDS011;25561;48.888;8.736;2023-03-14T15:07:53;5.45;;;1.10;;
34521;SDS011;25561;48.888;8.736;2023-03-14T15:10:55;2.47;;;0.65;;
34521;SDS011;25561;48.888;8.736;2023-03-14T15:13:59;5.97;;;1.30;;
34521;SDS011;25561;48.888;8.736;2023-03-14T15:17:01;8.25;;;1.15;;
34521;SDS011;25561;48.888;8.736;2023-03-14T15:20:06;5.00;;;1.10;;
34521;SDS011;25561;48.888;8.736;2023-03-14T15:23:15;11.07;;;1.23;;
34521;SDS011;25561;48.888;8.736;2023-03-14T15:26:20;3.33;;;0.90;;
34521;SDS011;25561;48.888;8.736;2023-03-14T15:29:23;6.25;;;1.35;;
34521;SDS011;25561;48.888;8.736;2023-03-14T15:32:25;7.85;;;1.40;;
34521;SDS011;25561;48.888;8.736;2023-03-14T15:35:32;6.88;;;2.03;;
34521;SDS011;25561;48.888;8.736;2023-03-14T15:38:34;4.28;;;1.08;;
34521;SDS011;25561;48.888;8.736;2023-03-14T15:41:36;3.75;;;1.23;;
34521;SDS011;25561;48.888;8.736;2023-03-14T15:44:38;5.03;;;1.00;;
34521;SDS011;25561;48.888;8.736;2023-03-14T15:47:40;6.57;;;1.27;;
34521;SDS011;25561;48.888;8.736;2023-03-14T15:50:42;10.18;;;1.27;;
34521;SDS011;25561;48.888;8.736;2023-03-14T15:53:44;3.67;;;0.90;;
34521;SDS011;25561;48.888;8.736;2023-03-14T15:56:48;8.95;;;1.27;;
34521;SDS011;25561;48.888;8.736;2023-03-14T15:59:49;4.45;;;1.30;;
34521;SDS011;25561;48.888;8.736;2023-03-14T16:02:51;8.40;;;1.45;;
34521;SDS011;25561;48.888;8.736;2023-03-14T16:05:53;7.60;;;1.48;;
34521;SDS011;25561;48.888;8.736;2023-03-14T16:08:56;5.45;;;1.00;;
34521;SDS011;25561;48.888;8.736;2023-03-14T16:11:58;4.88;;;1.25;;
34521;SDS011;25561;48.888;8.736;2023-03-14T16:14:59;6.50;;;1.20;;
34521;SDS011;25561;48.888;8.736;2023-03-14T16:18:02;6.63;;;1.40;;
34521;SDS011;25561;48.888;8.736;2023-03-14T16:21:21;7.60;;;1.15;;
34521;SDS011;25561;48.888;8.736;2023-03-14T16:24:23;6.20;;;1.20;;
34521;SDS011;25561;48.888;8.736;2023-03-14T16:27:24;5.55;;;1.33;;
34521;SDS011;25561;48.888;8.736;2023-03-14T16:30:26;6.43;;;1.27;;
34521;SDS011;25561;48.888;8.736;2023-03-14T16:33:28;3.35;;;1.10;;
34521;SDS011;25561;48.888;8.736;2023-03-14T16:36:30;7.30;;;1.58;;
34521;SDS011;25561;48.888;8.736;2023-03-14T16:39:32;8.40;;;1.67;;
34521;SDS011;25561;48.888;8.736;2023-03-14T16:42:41;10.93;;;1.80;;
34521;SDS011;25561;48.888;8.736;2023-03-14T16:46:03;10.43;;;1.38;;
34521;SDS011;25561;48.888;8.736;2023-03-14T16:49:06;6.63;;;1.98;;
34521;SDS011;25561;48.888;8.736;2023-03-14T16:52:08;2.22;;;1.35;;
34521;SDS011;25561;48.888;8.736;2023-03-14T16:55:10;10.68;;;1.42;;
34521;SDS011;25561;48.888;8.736;2023-03-14T16:58:12;8.57;;;1.30;;
